Time;durP1;ratioP1;P1;durP2;ratioP2;P2;SDS_P1;SDS_P2;PMS_P1;PMS_P2;Temp;Humidity;BMP_temperature;BMP_pressure;BME280_temperature;BME280_humidity;BME280_pressure;Samples;Min_cycle;Max_cycle;Signal;HPM_P1;HPM_P2
2022/02/10 00:13:33;;;;;;;;;;;7.80;99.90;;;;;;5105212;28;19973;-77
2022/02/10 00:16:11;;;;;;;;;;;7.80;99.90;;;;;;5100115;28;20433;-80
2022/02/10 00:19:05;;;;;;;;;;;7.70;99.90;;;;;;5108144;28;19950;-79
2022/02/10 00:21:44;;;;;;;;;;;7.70;99.90;;;;;;5083994;28;20119;-80
2022/02/10 00:24:33;;;;;;;;;;;7.60;99.90;;;;;;5084811;28;19924;-81
2022/02/10 00:35:20;;;;;;;;;;;7.30;99.90;;;;;;5082629;28;19946;-80
2022/02/10 00:37:58;;;;;;;;;;;7.20;99.90;;;;;;5080482;28;19931;-79
2022/02/10 00:40:26;;;;;;;;;;;7.20;99.90;;;;;;5084330;28;20452;-79
2022/02/10 00:42:53;;;;;;;;;;;7.20;99.90;;;;;;5095405;28;20023;-79
2022/02/10 00:45:20;;;;;;;;;;;7.10;99.90;;;;;;5087937;28;19928;-79
2022/02/10 00:47:53;;;;;;;;;;;7.10;99.90;;;;;;5091542;28;19924;-79
2022/02/10 00:50:22;;;;;;;;;;;7.00;99.90;;;;;;5089537;28;19947;-78
2022/02/10 00:52:51;;;;;;;;;;;6.90;99.90;;;;;;5095447;28;19924;-78
2022/02/10 00:55:23;;;;;;;;;;;6.90;99.90;;;;;;5081681;28;20444;-77
2022/02/10 00:57:50;;;;;;;;;;;6.80;99.90;;;;;;5086841;28;20403;-78
2022/02/10 01:02:08;;;;;;;;;;;6.70;99.90;;;;;;5093371;28;20000;-80
2022/02/10 01:12:07;;;;;;;;;;;6.30;99.90;;;;;;5116080;28;19930;-80
2022/02/10 01:24:28;;;;;;;;;;;6.20;99.90;;;;;;5120674;27;19923;-80
2022/02/10 01:31:09;;;;;;;;;;;6.20;99.90;;;;;;5120162;27;19966;-78
2022/02/10 01:33:36;;;;;;;;;;;6.30;99.90;;;;;;5122816;28;19930;-78
2022/02/10 01:36:03;;;;;;;;;;;6.30;99.90;;;;;;5134660;27;19950;-78
2022/02/10 01:38:31;;;;;;;;;;;6.30;99.90;;;;;;5131430;28;19923;-79
2022/02/10 02:05:38;;;;;;;;;;;6.00;99.90;;;;;;5116817;27;19931;-78
2022/02/10 02:08:06;;;;;;;;;;;6.00;99.90;;;;;;5109625;27;19924;-78
2022/02/10 02:10:34;;;;;;;;;;;5.90;99.90;;;;;;5119927;27;20394;-78
2022/02/10 02:13:01;;;;;;;;;;;5.90;99.90;;;;;;5114551;28;20404;-77
2022/02/10 02:15:28;;;;;;;;;;;5.90;99.90;;;;;;5102542;28;19924;-77
2022/02/10 02:17:54;;;;;;;;;;;5.80;99.90;;;;;;5112447;27;19928;-78
2022/02/10 02:20:21;;;;;;;;;;;5.80;99.90;;;;;;5120134;27;19928;-78
2022/02/10 02:22:49;;;;;;;;;;;5.80;99.90;;;;;;5119910;27;19942;-77
2022/02/10 02:25:16;;;;;;;;;;;5.70;99.90;;;;;;5112593;27;19930;-77
2022/02/10 02:27:46;;;;;;;;;;;5.70;99.90;;;;;;5120353;27;19938;-77
2022/02/10 02:30:24;;;;;;;;;;;5.70;99.90;;;;;;5106159;27;20015;-78
2022/02/10 02:33:18;;;;;;;;;;;5.60;99.90;;;;;;5111791;27;19938;-78
2022/02/10 02:36:08;;;;;;;;;;;5.60;99.90;;;;;;5119181;27;19925;-78
2022/02/10 02:38:52;;;;;;;;;;;5.50;99.90;;;;;;5109057;28;19928;-78
2022/02/10 03:06:16;;;;;;;;;;;5.30;99.90;;;;;;5110386;28;19931;-78
2022/02/10 03:08:47;;;;;;;;;;;5.20;99.90;;;;;;5113367;28;19935;-77
2022/02/10 03:11:16;;;;;;;;;;;5.20;99.90;;;;;;5114590;28;19991;-80
2022/02/10 03:13:47;;;;;;;;;;;5.30;99.90;;;;;;5119218;28;20405;-78
2022/02/10 03:16:47;;;;;;;;;;;5.40;99.90;;;;;;5118673;28;19923;-78
2022/02/10 03:19:30;;;;;;;;;;;5.40;99.90;;;;;;5108279;28;19932;-76
2022/02/10 04:08:46;;;;;;;;;;;5.90;99.90;;;;;;5117359;27;19928;-76
2022/02/10 04:11:40;;;;;;;;;;;5.90;99.90;;;;;;5106583;28;19924;-76
2022/02/10 04:14:15;;;;;;;;;;;6.00;99.90;;;;;;5112187;27;20011;-76
2022/02/10 04:16:50;;;;;;;;;;;6.00;99.90;;;;;;5115058;27;19938;-77
2022/02/10 04:22:12;;;;;;;;;;;6.10;99.90;;;;;;5110173;28;19924;-77
2022/02/10 04:25:02;;;;;;;;;;;6.10;99.90;;;;;;5113671;27;19924;-79
2022/02/10 04:27:52;;;;;;;;;;;6.10;99.90;;;;;;5106657;28;19977;-76
2022/02/10 04:30:33;;;;;;;;;;;6.10;99.90;;;;;;5116165;27;20290;-77
2022/02/10 04:39:45;;;;;;;;;;;6.10;99.90;;;;;;5099684;27;19927;-77
2022/02/10 04:53:43;;;;;;;;;;;6.20;99.90;;;;;;5068356;27;20398;-77
2022/02/10 04:56:23;;;;;;;;;;;6.20;99.90;;;;;;5117516;27;19985;-78
2022/02/10 04:59:03;;;;;;;;;;;6.30;99.90;;;;;;5111879;27;19930;-77
2022/02/10 05:01:44;;;;;;;;;;;6.30;99.90;;;;;;5117038;27;19962;-78
2022/02/10 05:13:39;;;;;;;;;;;6.50;99.90;;;;;;5113944;27;19934;-79
2022/02/10 05:18:56;;;;;;;;;;;6.50;99.90;;;;;;5116350;27;19930;-77
2022/02/10 05:21:55;;;;;;;;;;;6.60;99.90;;;;;;5113075;27;19928;-79
2022/02/10 05:24:41;;;;;;;;;;;6.60;99.90;;;;;;5108177;28;19924;-78
2022/02/10 05:33:00;;;;;;;;;;;6.70;99.90;;;;;;5110611;27;19932;-76
2022/02/10 05:35:30;;;;;;;;;;;6.80;99.90;;;;;;5104305;27;19924;-76
2022/02/10 05:38:04;;;;;;;;;;;6.70;99.90;;;;;;5111613;27;19924;-76
2022/02/10 05:43:32;;;;;;;;;;;6.80;99.90;;;;;;5111388;27;19924;-75
2022/02/10 05:46:13;;;;;;;;;;;6.80;99.90;;;;;;5116405;27;19928;-76
2022/02/10 05:49:01;;;;;;;;;;;6.80;99.90;;;;;;5104771;27;20421;-76
2022/02/10 05:52:13;;;;;;;;;;;6.80;99.90;;;;;;5110894;27;20371;-76
2022/02/10 05:54:47;;;;;;;;;;;6.80;99.90;;;;;;5108156;28;19931;-75
2022/02/10 05:57:30;;;;;;;;;;;6.90;99.90;;;;;;5105262;27;20351;-76
2022/02/10 06:47:47;;;;;;;;;;;7.00;99.90;;;;;;5102708;28;19928;-76
2022/02/10 06:53:22;;;;;;;;;;;7.10;99.90;;;;;;5105469;28;20652;-77
2022/02/10 06:56:17;;;;;;;;;;;7.10;99.90;;;;;;5099924;28;20424;-75
2022/02/10 07:07:22;;;;;;;;;;;7.00;99.90;;;;;;5100158;28;19931;-75
2022/02/10 07:10:11;;;;;;;;;;;6.90;99.90;;;;;;5097493;28;20378;-75
2022/02/10 07:13:07;;;;;;;;;;;6.90;99.90;;;;;;5098342;28;20298;-75
2022/02/10 07:15:59;;;;;;;;;;;6.90;99.90;;;;;;5103085;28;19954;-75
2022/02/10 07:52:15;;;;;;;;;;;6.90;99.90;;;;;;5099754;28;19924;-75
2022/02/10 07:54:49;;;;;;;;;;;6.90;99.90;;;;;;5101373;28;19931;-76
2022/02/10 07:57:29;;;;;;;;;;;7.00;99.90;;;;;;5113228;28;19985;-76
2022/02/10 08:00:21;;;;;;;;;;;7.00;99.90;;;;;;5110054;28;19954;-77
2022/02/10 08:55:16;;;;;;;;;;;7.10;99.90;;;;;;5104652;28;20434;-74
2022/02/10 08:58:09;;;;;;;;;;;7.10;99.90;;;;;;5109787;28;20293;-75
2022/02/10 09:01:09;;;;;;;;;;;7.20;99.90;;;;;;5109816;28;19954;-75
2022/02/10 09:03:50;;;;;;;;;;;7.10;99.90;;;;;;5106049;28;19963;-74
2022/02/10 09:06:25;;;;;;;;;;;7.10;99.90;;;;;;5108925;28;20513;-74
2022/02/10 09:12:25;;;;;;;;;;;7.10;99.90;;;;;;5121441;27;19938;-75
2022/02/10 09:15:23;;;;;;;;;;;7.10;99.90;;;;;;5096271;28;19939;-74
2022/02/10 09:49:15;;;;;;;;;;;7.80;99.90;;;;;;5092916;28;19931;-76
2022/02/10 09:56:52;;;;;;;;;;;7.80;99.90;;;;;;5094953;28;19932;-75
2022/02/10 09:59:35;;;;;;;;;;;7.80;99.90;;;;;;5096556;28;19924;-75
2022/02/10 10:02:08;;;;;;;;;;;7.80;99.90;;;;;;5099128;28;20325;-75
2022/02/10 10:04:39;;;;;;;;;;;7.80;99.90;;;;;;5102264;28;19959;-75
2022/02/10 10:07:17;;;;;;;;;;;7.90;99.90;;;;;;5106543;28;20353;-74
2022/02/10 10:09:55;;;;;;;;;;;7.90;99.90;;;;;;5109880;27;19950;-78
2022/02/10 10:15:19;;;;;;;;;;;8.00;99.90;;;;;;5149294;27;20628;-81
2022/02/10 10:21:04;;;;;;;;;;;8.10;99.90;;;;;;5120639;27;19932;-75
2022/02/10 10:23:46;;;;;;;;;;;8.10;99.90;;;;;;5116604;27;19990;-77
2022/02/10 10:26:34;;;;;;;;;;;8.20;99.90;;;;;;5110621;27;19986;-75
2022/02/10 10:49:35;;;;;;;;;;;9.10;99.90;;;;;;5095814;27;19924;-75
2022/02/10 10:52:11;;;;;;;;;;;9.00;99.90;;;;;;5100084;27;19955;-76
2022/02/10 10:54:45;;;;;;;;;;;8.90;99.90;;;;;;5098680;27;19923;-78
2022/02/10 10:57:16;;;;;;;;;;;9.00;99.90;;;;;;5097784;28;20019;-77
2022/02/10 11:00:23;;;;;;;;;;;9.00;99.90;;;;;;5092443;28;19936;-76
2022/02/10 11:23:31;;;;;;;;;;;9.00;99.90;;;;;;5095193;27;19934;-76
2022/02/10 11:36:47;;;;;;;;;;;9.00;99.90;;;;;;5108412;28;19927;-75
2022/02/10 11:39:35;;;;;;;;;;;9.00;99.90;;;;;;5097152;28;19924;-76
2022/02/10 11:42:41;;;;;;;;;;;9.00;99.90;;;;;;5094262;28;19930;-76
2022/02/10 13:23:32;;;;;;;;;;;9.90;99.90;;;;;;5097266;28;20022;-77
2022/02/10 14:13:18;;;;;;;;;;;9.30;99.60;;;;;;5097512;28;19932;-81
2022/02/10 14:16:07;;;;;;;;;;;9.30;99.90;;;;;;5104884;28;20458;-80
2022/02/10 14:18:34;;;;;;;;;;;9.30;99.90;;;;;;5103213;28;19928;-84
2022/02/10 14:21:09;;;;;;;;;;;9.40;99.90;;;;;;5110124;28;19930;-84
2022/02/10 14:26:31;;;;;;;;;;;9.40;99.90;;;;;;5106046;28;20032;-79
2022/02/10 14:29:00;;;;;;;;;;;9.50;99.90;;;;;;5104557;28;20405;-75
2022/02/10 14:31:26;;;;;;;;;;;9.40;99.90;;;;;;5105563;28;20398;-76
2022/02/10 14:33:54;;;;;;;;;;;9.40;99.90;;;;;;5101046;28;19924;-78
2022/02/10 14:36:27;;;;;;;;;;;9.40;99.90;;;;;;5112028;28;20395;-76
2022/02/10 14:39:02;;;;;;;;;;;9.30;99.90;;;;;;5102219;28;19975;-76
2022/02/10 14:42:07;;;;;;;;;;;9.30;99.90;;;;;;5102143;28;19924;-77
2022/02/10 15:56:10;;;;;;;;;;;7.40;99.90;;;;;;4971524;28;19926;-76
2022/02/10 16:13:23;;;;;;;;;;;7.50;99.90;;;;;;4961623;28;19941;-75
2022/02/10 16:18:22;;;;;;;;;;;7.20;99.90;;;;;;4966343;28;19923;-75
2022/02/10 16:20:57;;;;;;;;;;;7.10;99.90;;;;;;4962671;28;19961;-75
2022/02/10 16:23:26;;;;;;;;;;;7.10;99.90;;;;;;4966574;28;19973;-74
2022/02/10 16:26:08;;;;;;;;;;;7.00;99.90;;;;;;4967715;28;19991;-74
2022/02/10 16:28:36;;;;;;;;;;;7.10;99.90;;;;;;4963298;28;20043;-75
2022/02/10 16:31:03;;;;;;;;;;;7.00;99.90;;;;;;4967888;28;19983;-75
2022/02/10 16:33:32;;;;;;;;;;;7.00;99.90;;;;;;4969054;28;19979;-74
2022/02/10 16:36:00;;;;;;;;;;;7.00;99.90;;;;;;4970644;28;19926;-76
2022/02/10 16:38:28;;;;;;;;;;;7.00;99.90;;;;;;4965936;28;19930;-77
2022/02/10 16:40:55;;;;;;;;;;;6.90;99.90;;;;;;4964738;28;19934;-74
2022/02/10 16:43:22;;;;;;;;;;;6.90;99.90;;;;;;4972254;28;19926;-74
2022/02/10 16:45:48;;;;;;;;;;;6.80;99.90;;;;;;4969109;28;19969;-74
2022/02/10 16:48:15;;;;;;;;;;;6.70;99.90;;;;;;5010784;28;20001;-76
2022/02/10 16:50:44;;;;;;;;;;;6.70;99.90;;;;;;4966003;28;19934;-75
2022/02/10 16:53:13;;;;;;;;;;;6.70;99.90;;;;;;4969676;28;19926;-74
2022/02/10 16:56:07;;;;;;;;;;;6.70;99.90;;;;;;4968230;28;19932;-75
2022/02/10 16:58:40;;;;;;;;;;;6.70;99.90;;;;;;4968941;28;19926;-77
2022/02/10 17:04:38;;;;;;;;;;;6.70;99.90;;;;;;4967864;28;19933;-76
2022/02/10 17:21:12;;;;;;;;;;;6.70;99.90;;;;;;4997422;28;19952;-75
2022/02/10 17:26:39;;;;;;;;;;;6.70;99.90;;;;;;5049141;28;20393;-76
2022/02/10 17:29:13;;;;;;;;;;;6.70;99.90;;;;;;5045480;28;20299;-74
2022/02/10 17:31:52;;;;;;;;;;;6.50;99.90;;;;;;5040051;28;20016;-74
2022/02/10 17:34:36;;;;;;;;;;;6.50;99.90;;;;;;5045282;28;19932;-75
2022/02/10 17:37:13;;;;;;;;;;;6.40;99.90;;;;;;5046245;28;20403;-74
2022/02/10 17:53:26;;;;;;;;;;;5.90;99.90;;;;;;5046395;28;20311;-74
2022/02/10 17:55:53;;;;;;;;;;;6.00;99.90;;;;;;5038037;28;19933;-74
2022/02/10 17:58:22;;;;;;;;;;;6.00;99.90;;;;;;5041951;28;20003;-73
2022/02/10 18:00:49;;;;;;;;;;;5.90;99.90;;;;;;5041618;28;19924;-72
2022/02/10 18:03:18;;;;;;;;;;;5.70;99.90;;;;;;5043912;28;19968;-73
2022/02/10 18:08:45;;;;;;;;;;;5.70;99.90;;;;;;5033830;28;19935;-73
2022/02/10 18:12:01;;;;;;;;;;;5.70;99.90;;;;;;5040260;28;19951;-74
2022/02/10 18:14:32;;;;;;;;;;;5.60;99.90;;;;;;5040921;28;19925;-74
2022/02/10 18:17:31;;;;;;;;;;;5.70;99.90;;;;;;5045775;28;20028;-76
2022/02/10 18:20:21;;;;;;;;;;;5.70;99.90;;;;;;5041611;28;19924;-73
2022/02/10 18:23:02;;;;;;;;;;;5.70;99.90;;;;;;5043618;28;20299;-75
2022/02/10 18:25:52;;;;;;;;;;;5.70;99.90;;;;;;5048471;28;19932;-74
2022/02/10 18:28:28;;;;;;;;;;;5.70;99.90;;;;;;5034215;28;20515;-75
2022/02/10 19:02:14;;;;;;;;;;;5.50;99.90;;;;;;5043580;28;19978;-72
2022/02/10 19:07:38;;;;;;;;;;;5.50;99.90;;;;;;5024086;28;20015;-73
2022/02/10 19:10:08;;;;;;;;;;;5.50;99.90;;;;;;5039291;28;19932;-74
2022/02/10 19:12:43;;;;;;;;;;;5.50;99.90;;;;;;5035149;28;19929;-73
2022/02/10 19:15:16;;;;;;;;;;;5.50;99.90;;;;;;5045960;28;19933;-73
2022/02/10 19:17:42;;;;;;;;;;;5.50;99.90;;;;;;5039503;28;20395;-72
2022/02/10 19:20:09;;;;;;;;;;;5.50;99.90;;;;;;5044948;28;19935;-75
2022/02/10 19:22:37;;;;;;;;;;;5.40;99.90;;;;;;5036070;28;20402;-74
2022/02/10 19:25:05;;;;;;;;;;;5.40;99.90;;;;;;5047527;28;19924;-75
2022/02/10 19:27:34;;;;;;;;;;;5.40;99.90;;;;;;5038546;28;19925;-74
2022/02/10 19:30:01;;;;;;;;;;;5.40;99.90;;;;;;5042944;28;20376;-71
2022/02/10 19:32:30;;;;;;;;;;;5.30;99.90;;;;;;5041212;28;19937;-74
2022/02/10 19:34:58;;;;;;;;;;;5.30;99.90;;;;;;5047082;28;20380;-72
2022/02/10 19:37:26;;;;;;;;;;;5.30;99.90;;;;;;5043582;28;19924;-73
2022/02/10 19:39:57;;;;;;;;;;;5.30;99.90;;;;;;5040781;28;19935;-73
2022/02/10 19:42:26;;;;;;;;;;;5.20;99.90;;;;;;5044101;28;19928;-73
2022/02/10 19:44:57;;;;;;;;;;;5.20;99.90;;;;;;5043006;28;19940;-73
2022/02/10 19:47:23;;;;;;;;;;;5.10;99.90;;;;;;5040364;28;20419;-73
2022/02/10 19:49:50;;;;;;;;;;;5.10;99.90;;;;;;5044137;28;19924;-73
2022/02/10 19:52:18;;;;;;;;;;;5.10;99.90;;;;;;5051878;28;19928;-73
2022/02/10 19:54:48;;;;;;;;;;;5.00;99.90;;;;;;5046756;28;19924;-73
2022/02/10 19:57:17;;;;;;;;;;;5.00;99.90;;;;;;5037116;28;19933;-73
2022/02/10 19:59:44;;;;;;;;;;;5.00;99.90;;;;;;5050032;28;19972;-72
2022/02/10 20:02:12;;;;;;;;;;;5.00;99.90;;;;;;5052990;28;19925;-74
2022/02/10 20:04:40;;;;;;;;;;;4.90;99.90;;;;;;5047034;28;19933;-74
2022/02/10 20:07:08;;;;;;;;;;;4.90;99.90;;;;;;5038777;28;19954;-74
2022/02/10 20:09:34;;;;;;;;;;;4.90;99.90;;;;;;5041513;28;19955;-74
2022/02/10 20:12:01;;;;;;;;;;;4.90;99.90;;;;;;5045408;28;19931;-73
2022/02/10 20:14:28;;;;;;;;;;;5.10;99.90;;;;;;5036660;28;20011;-73
2022/02/10 20:16:57;;;;;;;;;;;5.00;99.90;;;;;;5039357;28;19968;-73
2022/02/10 20:19:25;;;;;;;;;;;5.00;99.90;;;;;;5038621;28;19936;-74
2022/02/10 20:21:51;;;;;;;;;;;5.00;99.90;;;;;;5038692;28;19952;-75
2022/02/10 20:24:18;;;;;;;;;;;5.00;99.90;;;;;;5039623;28;19935;-74
2022/02/10 20:26:45;;;;;;;;;;;5.00;99.90;;;;;;5034031;28;19968;-72
2022/02/10 20:29:12;;;;;;;;;;;5.00;99.90;;;;;;5040650;28;20414;-73
2022/02/10 20:31:40;;;;;;;;;;;5.00;99.90;;;;;;5041028;28;19983;-73
2022/02/10 20:34:07;;;;;;;;;;;5.00;99.90;;;;;;5036223;28;20051;-73
2022/02/10 20:36:36;;;;;;;;;;;4.90;99.90;;;;;;5043470;28;19932;-73
2022/02/10 20:39:03;;;;;;;;;;;4.90;99.90;;;;;;5046202;28;19925;-73
2022/02/10 20:41:33;;;;;;;;;;;4.90;99.90;;;;;;5038826;28;20011;-72
2022/02/10 20:44:01;;;;;;;;;;;4.90;99.90;;;;;;5044177;28;19943;-73
2022/02/10 20:46:31;;;;;;;;;;;4.90;99.90;;;;;;5035201;28;20641;-72
2022/02/10 20:49:01;;;;;;;;;;;4.90;99.90;;;;;;5035691;28;19937;-72
2022/02/10 20:51:28;;;;;;;;;;;4.80;99.90;;;;;;5033044;28;19972;-72
2022/02/10 20:53:56;;;;;;;;;;;4.80;99.90;;;;;;5031580;28;19925;-74
2022/02/10 20:56:23;;;;;;;;;;;4.80;99.90;;;;;;5040004;28;19939;-74
2022/02/10 20:58:55;;;;;;;;;;;4.70;99.90;;;;;;5030366;28;20295;-72
2022/02/10 21:01:22;;;;;;;;;;;4.70;99.90;;;;;;5035650;28;20033;-74
2022/02/10 21:03:49;;;;;;;;;;;4.70;99.90;;;;;;5042453;28;19925;-75
2022/02/10 21:06:30;;;;;;;;;;;4.50;99.90;;;;;;5034424;28;20110;-72
2022/02/10 21:09:02;;;;;;;;;;;4.50;99.90;;;;;;5036518;28;20294;-74
2022/02/10 21:11:29;;;;;;;;;;;4.50;99.90;;;;;;5040680;28;20437;-73
2022/02/10 21:13:58;;;;;;;;;;;4.50;99.90;;;;;;5033851;28;19937;-73
2022/02/10 21:16:25;;;;;;;;;;;4.50;99.90;;;;;;5043123;28;19925;-72
2022/02/10 21:18:52;;;;;;;;;;;4.50;99.90;;;;;;5040471;28;20029;-72
2022/02/10 21:21:19;;;;;;;;;;;4.50;99.90;;;;;;5032801;28;19925;-73
2022/02/10 21:23:52;;;;;;;;;;;4.40;99.90;;;;;;5035829;28;20027;-73
2022/02/10 21:26:27;;;;;;;;;;;4.40;99.90;;;;;;5037472;28;20365;-73
2022/02/10 21:28:58;;;;;;;;;;;4.40;99.90;;;;;;5035165;28;20020;-73
2022/02/10 21:31:28;;;;;;;;;;;4.30;99.90;;;;;;5034956;28;20110;-73
2022/02/10 21:34:05;;;;;;;;;;;4.30;99.90;;;;;;5046093;28;19966;-73
2022/02/10 21:36:57;;;;;;;;;;;4.30;99.90;;;;;;5038185;28;19933;-74
2022/02/10 21:39:35;;;;;;;;;;;4.30;99.90;;;;;;5039773;28;19925;-73
2022/02/10 21:47:53;;;;;;;;;;;4.20;99.90;;;;;;5021609;28;20019;-76
2022/02/10 22:07:36;;;;;;;;;;;3.90;99.90;;;;;;5048500;28;20350;-75
2022/02/10 22:09:56;;;;;;;;;;;3.80;99.90;;;;;;5052123;28;19940;-75
2022/02/10 22:20:48;;;;;;;;;;;3.80;99.90;;;;;;5046817;28;20009;-75
2022/02/10 22:23:19;;;;;;;;;;;3.80;99.90;;;;;;5044848;28;19944;-76
2022/02/10 22:25:45;;;;;;;;;;;3.70;99.90;;;;;;5045352;28;19965;-76
2022/02/10 22:28:25;;;;;;;;;;;3.70;99.90;;;;;;5041770;28;19925;-75
2022/02/10 22:31:04;;;;;;;;;;;3.70;99.90;;;;;;5045223;28;19935;-75
2022/02/10 22:33:44;;;;;;;;;;;3.70;99.90;;;;;;5041132;28;19925;-76
2022/02/10 22:36:14;;;;;;;;;;;3.60;99.90;;;;;;5039529;28;19925;-75
2022/02/10 22:38:40;;;;;;;;;;;3.60;99.90;;;;;;5045093;28;19971;-75
2022/02/10 22:41:10;;;;;;;;;;;3.50;99.90;;;;;;5038566;28;20023;-75
2022/02/10 22:43:37;;;;;;;;;;;3.50;99.90;;;;;;5042492;28;19928;-76
2022/02/10 22:46:06;;;;;;;;;;;3.50;99.90;;;;;;5042325;28;20016;-75
2022/02/10 22:48:32;;;;;;;;;;;3.50;99.90;;;;;;5043100;28;19933;-75
2022/02/10 22:50:59;;;;;;;;;;;3.50;99.90;;;;;;5051534;28;20003;-75
2022/02/10 22:53:26;;;;;;;;;;;3.60;99.90;;;;;;5056520;28;19925;-75
2022/02/10 22:55:53;;;;;;;;;;;3.60;99.90;;;;;;5053161;28;19925;-75
2022/02/10 22:58:20;;;;;;;;;;;3.60;99.90;;;;;;5055899;28;19925;-75
2022/02/10 23:00:49;;;;;;;;;;;3.50;99.90;;;;;;5049550;28;20286;-75
2022/02/10 23:03:18;;;;;;;;;;;3.50;99.90;;;;;;5052308;28;19928;-74
2022/02/10 23:05:45;;;;;;;;;;;3.50;99.90;;;;;;5046969;28;19935;-75
2022/02/10 23:08:12;;;;;;;;;;;3.40;99.90;;;;;;5051752;28;19936;-76
2022/02/10 23:10:43;;;;;;;;;;;3.40;99.90;;;;;;5053611;28;19933;-75
2022/02/10 23:13:10;;;;;;;;;;;3.40;99.90;;;;;;5051046;28;19947;-75
2022/02/10 23:15:38;;;;;;;;;;;3.40;99.90;;;;;;5056665;28;20020;-75
2022/02/10 23:18:08;;;;;;;;;;;3.50;99.90;;;;;;5058745;28;19935;-75
2022/02/10 23:20:37;;;;;;;;;;;3.60;99.90;;;;;;5051107;28;19925;-75
2022/02/10 23:23:05;;;;;;;;;;;3.70;99.90;;;;;;5046059;28;19933;-75
2022/02/10 23:25:32;;;;;;;;;;;3.70;99.90;;;;;;5053380;28;20429;-75
2022/02/10 23:28:00;;;;;;;;;;;3.70;99.90;;;;;;5053488;28;19932;-75
2022/02/10 23:30:26;;;;;;;;;;;3.70;99.90;;;;;;5050029;28;19924;-75
2022/02/10 23:32:57;;;;;;;;;;;3.70;99.90;;;;;;5047041;28;19925;-76
2022/02/10 23:36:05;;;;;;;;;;;3.60;99.90;;;;;;5053410;28;19932;-74
2022/02/10 23:38:24;;;;;;;;;;;3.60;99.90;;;;;;5041847;28;19925;-75
2022/02/10 23:41:18;;;;;;;;;;;3.60;99.90;;;;;;5034255;28;20416;-75
2022/02/10 23:43:44;;;;;;;;;;;3.50;99.90;;;;;;5033841;28;19925;-75
2022/02/10 23:46:10;;;;;;;;;;;3.50;99.90;;;;;;5038470;28;19932;-75
2022/02/10 23:48:37;;;;;;;;;;;3.50;99.90;;;;;;5050882;28;20387;-75
2022/02/10 23:51:04;;;;;;;;;;;3.50;99.90;;;;;;5053195;28;19924;-75
2022/02/10 23:53:34;;;;;;;;;;;3.50;99.90;;;;;;5052272;28;20019;-76
2022/02/10 23:56:07;;;;;;;;;;;3.40;99.90;;;;;;5052690;28;19935;-75
2022/02/10 23:58:41;;;;;;;;;;;3.40;99.90;;;;;;5047713;28;19947;-76
